Terminal Aerodrome Forecast
Issued by NWS Bismarck, ND

Home | Current Version | Previous Version | Text Only | Print | Product List | Glossary On
Versions: 1 2 3 4 5 6 7 8 9 10 11 12 13 14 15 16 17 18 19 20 21 22
204
FTUS43 KBIS 191736
TAFISN
TAF
KISN 191736Z 1918/2018 36004KT P6SM OVC080
     FM192000 VRB03KT P6SM -SN OVC050
     FM200000 34005KT 4SM -SN SCT015 OVC030
     FM200200 VRB03KT 4SM -SN OVC015
     FM200900 VRB03KT P6SM OVC020
     FM201700 25007KT P6SM BKN045=

USA.gov is the U.S. government's official web portal to all federal, state and local government web resources and services.